MSC Paola — 9HA2581 — position and weather

sailwx.info

Track history (hours):
 
Tides and Currents Weather Stations Pressure Air Temp Water Temp Dewpoint Dewpoint Depression Visibility Wind Speed Wind Dir Waves Ship Positions

MSC Paola

Last reported at 2014-Sep-06 16:31 UTC. Time now 2014-Sep-18 21:42 UTC.
Position N 49°51' W 001°06'.
Warning: this ship's position is 12 days out of date.

Length 243 m; draft 10.6 m.

Type: Ship (hazmat cat A). MMSI: 248931000.

Date/timePositionNaut miles runAvg speedWind from/ knotsBaromVisibWave heightAir tempDewpointWater temp
2014-Sep-06 16:31N 49°51' W 001°06'1313.4
2014-Sep-06 15:33N 49°46' W 000°48'1414.4
2014-Sep-06 14:33N 49°38' W 000°28'1515.3
2014-Sep-06 13:33N 49°32' W 000°07'1111.1
2014-Sep-06 12:33N 49°28' E 000°09'0 0.0
2014-Sep-06 11:31N 49°28' E 000°09'0 0.0
2014-Sep-06 10:31N 49°28' E 000°09'0 0.0
2014-Sep-06 09:31N 49°28' E 000°09'0 0.0
2014-Sep-06 08:31N 49°28' E 000°09'0 0.0
2014-Sep-06 07:31N 49°28' E 000°09'0 0.0
2014-Sep-06 06:31N 49°28' E 000°09'0 0.0
2014-Sep-06 05:31N 49°28' E 000°09'0 0.0
2014-Sep-06 04:31N 49°28' E 000°09'0 0.0
2014-Sep-06 03:31N 49°28' E 000°09'0 0.0
2014-Sep-06 02:31N 49°28' E 000°09'0 0.0
2014-Sep-06 01:28N 49°28' E 000°09'0 0.0
2014-Sep-06 00:31N 49°28' E 000°09'0 0.0
2014-Sep-05 23:31N 49°28' E 000°09'0 0.0
2014-Sep-05 22:31N 49°28' E 000°09'0 0.0
2014-Sep-05 21:31N 49°28' E 000°09'0 0.4
2014-Sep-05 20:33N 49°27' E 000°09'1110.9
2014-Sep-05 19:33N 49°31' W 000°06'7 5.9
2014-Sep-05 18:28N 49°36' W 000°13'0 0.0
2014-Sep-05 17:25N 49°36' W 000°13'0 0.0
2014-Sep-05 16:28N 49°36' W 000°13'0 0.0
2014-Sep-05 15:25N 49°36' W 000°13'0 0.2
2014-Sep-05 14:28N 49°36' W 000°14'0 0.1
2014-Sep-05 13:34N 49°36' W 000°14'0 0.1
2014-Sep-05 12:33N 49°36' W 000°14'1 1.4
2014-Sep-05 11:33N 49°38' W 000°14'4912.2
2014-Sep-05 07:32N 50°27' W 000°10'1412.4
2014-Sep-05 06:25N 50°31' E 000°11'1012.2
2014-Sep-05 05:33N 50°34' E 000°27'1211.7
2014-Sep-05 04:34N 50°40' E 000°43'1211.8
2014-Sep-05 03:34N 50°47' E 000°58'1312.8
2014-Sep-05 02:33N 50°56' E 001°12'1514.7
2014-Sep-05 01:33N 51°06' E 001°30'1313.1
2014-Sep-05 00:33N 51°14' E 001°46'1312.7
2014-Sep-04 23:33N 51°26' E 001°53'1111.3
2014-Sep-04 22:33N 51°36' E 001°47'1211.6
2014-Sep-04 21:34N 51°48' E 001°44'1110.9
2014-Sep-04 20:33N 51°56' E 001°32'9 8.8
2014-Sep-04 19:32N 51°58' E 001°18'0 0.0
2014-Sep-04 18:32N 51°58' E 001°18'0 0.0
2014-Sep-04 17:32N 51°58' E 001°18'0 0.0
2014-Sep-04 16:32N 51°58' E 001°18'0 0.0
2014-Sep-04 15:32N 51°58' E 001°18'0 0.0
2014-Sep-04 14:32N 51°58' E 001°18'0 0.0
2014-Sep-04 13:32N 51°58' E 001°18'0 0.0
2014-Sep-04 12:32N 51°58' E 001°18'0 0.0
2014-Sep-04 11:32N 51°58' E 001°18'0 0.0
2014-Sep-04 10:34N 51°58' E 001°18'5 4.8
2014-Sep-04 09:33N 51°56' E 001°25'9 9.4
2014-Sep-04 08:34N 51°52' E 001°39'2 1.8
2014-Sep-04 07:33N 51°53' E 001°41'0 0.1
2014-Sep-04 06:33N 51°53' E 001°41'0 0.1
2014-Sep-04 05:33N 51°53' E 001°41'0 0.0
2014-Sep-04 04:33N 51°53' E 001°41'0 0.0
2014-Sep-04 03:32N 51°53' E 001°41'0 0.0
2014-Sep-04 02:32N 51°53' E 001°41'0 0.1
2014-Sep-04 01:33N 51°53' E 001°42'7 7.2
2014-Sep-04 00:33N 51°47' E 001°49'1514.9
2014-Sep-03 23:33N 51°33' E 001°51'1514.9
2014-Sep-03 22:33N 51°23' E 002°10'1211.8
2014-Sep-03 21:33N 51°23' E 002°29'1311.9
2014-Sep-03 20:26N 51°22' E 002°50'1517.0
2014-Sep-03 19:33N 51°25' E 003°14'1414.4
2014-Sep-03 18:33N 51°26' E 003°36'1111.3
2014-Sep-03 17:33N 51°21' E 003°53'9 8.6
2014-Sep-03 16:33N 51°22' E 004°06'7 7.0
2014-Sep-03 15:34N 51°21' E 004°17'0 0.4
2014-Sep-03 14:33N 51°21' E 004°18'2 1.6
2014-Sep-03 13:33N 51°20' E 004°20'0 0.1
2014-Sep-03 11:28N 51°20' E 004°20'0 0.0
2014-Sep-03 10:25N 51°20' E 004°20'0 0.0
2014-Sep-03 09:31N 51°20' E 004°20'0 0.0
2014-Sep-03 08:31N 51°20' E 004°20'0 0.0
2014-Sep-03 07:25N 51°20' E 004°20'0 0.0
2014-Sep-03 06:31N 51°20' E 004°20'0 0.0
2014-Sep-03 05:31N 51°20' E 004°20'0 0.0
2014-Sep-03 04:31N 51°20' E 004°20'0 0.0
2014-Sep-03 03:31N 51°20' E 004°20'0 0.0
2014-Sep-03 02:31N 51°20' E 004°20'0 0.0
2014-Sep-03 01:31N 51°20' E 004°20'0 0.0
2014-Sep-03 00:31N 51°20' E 004°20'0 0.0
2014-Sep-02 23:31N 51°20' E 004°20'0 0.0
2014-Sep-02 22:31N 51°20' E 004°20'0 0.0
2014-Sep-02 21:31N 51°20' E 004°20'0 0.0
2014-Sep-02 20:31N 51°20' E 004°20'0 0.0
2014-Sep-02 19:31N 51°20' E 004°20'0 0.0
2014-Sep-02 18:31N 51°20' E 004°20'0 0.0
2014-Sep-02 17:31N 51°20' E 004°20'0 0.0
2014-Sep-02 16:31N 51°20' E 004°20'0 0.0
2014-Sep-02 15:31N 51°20' E 004°20'1 1.4
2014-Sep-02 14:33N 51°20' E 004°18'1 1.1
2014-Sep-02 13:33N 51°21' E 004°17'0 0.4
2014-Sep-02 12:34N 51°21' E 004°17'6 5.9
2014-Sep-02 11:33N 51°22' E 004°07'7 6.6
2014-Sep-02 10:33N 51°23' E 003°57'9 9.3
2014-Sep-02 09:33N 51°25' E 003°42'10 9.8
2014-Sep-02 08:34N 51°25' E 003°27'1615.8
2014-Sep-02 07:34N 51°25' E 003°01'1715.6
2014-Sep-02 06:26N 51°41' E 003°12'8 9.6
2014-Sep-02 05:33N 51°49' E 003°15'7 6.4
2014-Sep-02 04:29N 51°56' E 003°18'1210.5
2014-Sep-02 03:23N 52°07' E 003°25'2713.1
2014-Sep-02 01:19N 52°31' E 003°44'1213.6
2014-Sep-02 00:24N 52°42' E 003°54'1213.8
2014-Sep-01 23:33N 52°53' E 003°58'3013.1
2014-Sep-01 21:15N 53°17' E 004°29'32413.1
2014-Aug-31 20:33N 57°42' E 009°58'1413.3
2014-Aug-31 19:31N 57°46' E 010°22'1212.6
2014-Aug-31 18:34N 57°50' E 010°44'1312.8
2014-Aug-31 17:34N 57°41' E 011°01'1413.8
2014-Aug-31 16:33N 57°32' E 011°21'1818.4
2014-Aug-31 15:34N 57°15' E 011°35'1414.1
2014-Aug-31 14:33N 57°02' E 011°45'1414.1
2014-Aug-31 13:33N 56°49' E 011°52'1312.9
2014-Aug-31 12:33N 56°37' E 011°45'12311.2
2014-Aug-31 01:34N 54°35' E 011°15'1414.1
2014-Aug-31 00:33N 54°29' E 011°37'1313.3
2014-Aug-30 23:33N 54°26' E 011°59'1411.0
2014-Aug-30 22:17N 54°36' E 012°17'1013.5
2014-Aug-30 21:33N 54°42' E 012°30'1313.2
2014-Aug-30 20:33N 54°49' E 012°50'1312.8
2014-Aug-30 19:33N 54°53' E 013°11'1312.8
2014-Aug-30 18:34N 54°58' E 013°31'1312.8
2014-Aug-30 17:33N 55°03' E 013°52'1212.4
2014-Aug-30 16:34N 55°09' E 014°10'1313.2
2014-Aug-30 15:33N 55°20' E 014°25'1212.4
2014-Aug-30 14:33N 55°28' E 014°40'1312.6
2014-Aug-30 13:33N 55°34' E 014°59'1313.0
2014-Aug-30 12:33N 55°40' E 015°21'13813.6
2014-Aug-30 02:22N 56°41' E 019°03'1114.0
2014-Aug-30 01:33N 56°50' E 019°14'19613.7
2014-Aug-29 11:14N 59°32' E 022°45'913.8
2014-Aug-29 10:33N 59°35' E 023°02'1414.0
2014-Aug-29 09:34N 59°39' E 023°29'1414.1
2014-Aug-29 08:33N 59°43' E 023°56'3614.5
2014-Aug-29 06:06N 59°52' E 025°04'1012.8
2014-Aug-29 05:22N 59°53' E 025°23'1414.4
2014-Aug-29 04:22N 59°55' E 025°52'1518.3
2014-Aug-29 03:34N 59°59' E 026°20'1413.7
2014-Aug-29 02:34N 60°01' E 026°47'1412.7
2014-Aug-29 01:29N 60°03' E 027°14'1413.7
2014-Aug-29 00:29N 60°10' E 027°38'7013.0
2014-Aug-28 19:04N 59°56' E 029°56'510.3
2014-Aug-28 18:33N 59°54' E 030°06'4 0.3
2014-Aug-28 06:08N 59°52' E 030°12'  
Track history (hours):
 
Tides and Currents Weather Stations Pressure Air Temp Water Temp Dewpoint Dewpoint Depression Visibility Wind Speed Wind Dir Waves Ship Positions

MSC Paola

Last reported at 2014-Sep-06 16:31 UTC. Time now 2014-Sep-18 21:42 UTC.
Position N 49°51' W 001°06'.
Warning: this ship's position is 12 days out of date.

Length 243 m; draft 10.6 m.

Type: Ship (hazmat cat A). MMSI: 248931000.

Date/timePositionNaut miles runAvg speedWind from/ knotsBaromVisibWave heightAir tempDewpointWater temp
2014-Sep-06 16:31N 49°51' W 001°06'1313.4
2014-Sep-06 15:33N 49°46' W 000°48'1414.4
2014-Sep-06 14:33N 49°38' W 000°28'1515.3
2014-Sep-06 13:33N 49°32' W 000°07'1111.1
2014-Sep-06 12:33N 49°28' E 000°09'0 0.0
2014-Sep-06 11:31N 49°28' E 000°09'0 0.0
2014-Sep-06 10:31N 49°28' E 000°09'0 0.0
2014-Sep-06 09:31N 49°28' E 000°09'0 0.0
2014-Sep-06 08:31N 49°28' E 000°09'0 0.0
2014-Sep-06 07:31N 49°28' E 000°09'0 0.0
2014-Sep-06 06:31N 49°28' E 000°09'0 0.0
2014-Sep-06 05:31N 49°28' E 000°09'0 0.0
2014-Sep-06 04:31N 49°28' E 000°09'0 0.0
2014-Sep-06 03:31N 49°28' E 000°09'0 0.0
2014-Sep-06 02:31N 49°28' E 000°09'0 0.0
2014-Sep-06 01:28N 49°28' E 000°09'0 0.0
2014-Sep-06 00:31N 49°28' E 000°09'0 0.0
2014-Sep-05 23:31N 49°28' E 000°09'0 0.0
2014-Sep-05 22:31N 49°28' E 000°09'0 0.0
2014-Sep-05 21:31N 49°28' E 000°09'0 0.4
2014-Sep-05 20:33N 49°27' E 000°09'1110.9
2014-Sep-05 19:33N 49°31' W 000°06'7 5.9
2014-Sep-05 18:28N 49°36' W 000°13'0 0.0
2014-Sep-05 17:25N 49°36' W 000°13'0 0.0
2014-Sep-05 16:28N 49°36' W 000°13'0 0.0
2014-Sep-05 15:25N 49°36' W 000°13'0 0.2
2014-Sep-05 14:28N 49°36' W 000°14'0 0.1
2014-Sep-05 13:34N 49°36' W 000°14'0 0.1
2014-Sep-05 12:33N 49°36' W 000°14'1 1.4
2014-Sep-05 11:33N 49°38' W 000°14'4912.2
2014-Sep-05 07:32N 50°27' W 000°10'1412.4
2014-Sep-05 06:25N 50°31' E 000°11'1012.2
2014-Sep-05 05:33N 50°34' E 000°27'1211.7
2014-Sep-05 04:34N 50°40' E 000°43'1211.8
2014-Sep-05 03:34N 50°47' E 000°58'1312.8
2014-Sep-05 02:33N 50°56' E 001°12'1514.7
2014-Sep-05 01:33N 51°06' E 001°30'1313.1
2014-Sep-05 00:33N 51°14' E 001°46'1312.7
2014-Sep-04 23:33N 51°26' E 001°53'1111.3
2014-Sep-04 22:33N 51°36' E 001°47'1211.6
2014-Sep-04 21:34N 51°48' E 001°44'1110.9
2014-Sep-04 20:33N 51°56' E 001°32'9 8.8
2014-Sep-04 19:32N 51°58' E 001°18'0 0.0
2014-Sep-04 18:32N 51°58' E 001°18'0 0.0
2014-Sep-04 17:32N 51°58' E 001°18'0 0.0
2014-Sep-04 16:32N 51°58' E 001°18'0 0.0
2014-Sep-04 15:32N 51°58' E 001°18'0 0.0
2014-Sep-04 14:32N 51°58' E 001°18'0 0.0
2014-Sep-04 13:32N 51°58' E 001°18'0 0.0
2014-Sep-04 12:32N 51°58' E 001°18'0 0.0
2014-Sep-04 11:32N 51°58' E 001°18'0 0.0
2014-Sep-04 10:34N 51°58' E 001°18'5 4.8
2014-Sep-04 09:33N 51°56' E 001°25'9 9.4
2014-Sep-04 08:34N 51°52' E 001°39'2 1.8
2014-Sep-04 07:33N 51°53' E 001°41'0 0.1
2014-Sep-04 06:33N 51°53' E 001°41'0 0.1
2014-Sep-04 05:33N 51°53' E 001°41'0 0.0
2014-Sep-04 04:33N 51°53' E 001°41'0 0.0
2014-Sep-04 03:32N 51°53' E 001°41'0 0.0
2014-Sep-04 02:32N 51°53' E 001°41'0 0.1
2014-Sep-04 01:33N 51°53' E 001°42'7 7.2
2014-Sep-04 00:33N 51°47' E 001°49'1514.9
2014-Sep-03 23:33N 51°33' E 001°51'1514.9
2014-Sep-03 22:33N 51°23' E 002°10'1211.8
2014-Sep-03 21:33N 51°23' E 002°29'1311.9
2014-Sep-03 20:26N 51°22' E 002°50'1517.0
2014-Sep-03 19:33N 51°25' E 003°14'1414.4
2014-Sep-03 18:33N 51°26' E 003°36'1111.3
2014-Sep-03 17:33N 51°21' E 003°53'9 8.6
2014-Sep-03 16:33N 51°22' E 004°06'7 7.0
2014-Sep-03 15:34N 51°21' E 004°17'0 0.4
2014-Sep-03 14:33N 51°21' E 004°18'2 1.6
2014-Sep-03 13:33N 51°20' E 004°20'0 0.1
2014-Sep-03 11:28N 51°20' E 004°20'0 0.0
2014-Sep-03 10:25N 51°20' E 004°20'0 0.0
2014-Sep-03 09:31N 51°20' E 004°20'0 0.0
2014-Sep-03 08:31N 51°20' E 004°20'0 0.0
2014-Sep-03 07:25N 51°20' E 004°20'0 0.0
2014-Sep-03 06:31N 51°20' E 004°20'0 0.0
2014-Sep-03 05:31N 51°20' E 004°20'0 0.0
2014-Sep-03 04:31N 51°20' E 004°20'0 0.0
2014-Sep-03 03:31N 51°20' E 004°20'0 0.0
2014-Sep-03 02:31N 51°20' E 004°20'0 0.0
2014-Sep-03 01:31N 51°20' E 004°20'0 0.0
2014-Sep-03 00:31N 51°20' E 004°20'0 0.0
2014-Sep-02 23:31N 51°20' E 004°20'0 0.0
2014-Sep-02 22:31N 51°20' E 004°20'0 0.0
2014-Sep-02 21:31N 51°20' E 004°20'0 0.0
2014-Sep-02 20:31N 51°20' E 004°20'0 0.0
2014-Sep-02 19:31N 51°20' E 004°20'0 0.0
2014-Sep-02 18:31N 51°20' E 004°20'0 0.0
2014-Sep-02 17:31N 51°20' E 004°20'0 0.0
2014-Sep-02 16:31N 51°20' E 004°20'0 0.0
2014-Sep-02 15:31N 51°20' E 004°20'1 1.4
2014-Sep-02 14:33N 51°20' E 004°18'1 1.1
2014-Sep-02 13:33N 51°21' E 004°17'0 0.4
2014-Sep-02 12:34N 51°21' E 004°17'6 5.9
2014-Sep-02 11:33N 51°22' E 004°07'7 6.6
2014-Sep-02 10:33N 51°23' E 003°57'9 9.3
2014-Sep-02 09:33N 51°25' E 003°42'10 9.8
2014-Sep-02 08:34N 51°25' E 003°27'1615.8
2014-Sep-02 07:34N 51°25' E 003°01'1715.6
2014-Sep-02 06:26N 51°41' E 003°12'8 9.6
2014-Sep-02 05:33N 51°49' E 003°15'7 6.4
2014-Sep-02 04:29N 51°56' E 003°18'1210.5
2014-Sep-02 03:23N 52°07' E 003°25'2713.1
2014-Sep-02 01:19N 52°31' E 003°44'1213.6
2014-Sep-02 00:24N 52°42' E 003°54'1213.8
2014-Sep-01 23:33N 52°53' E 003°58'3013.1
2014-Sep-01 21:15N 53°17' E 004°29'32413.1
2014-Aug-31 20:33N 57°42' E 009°58'1413.3
2014-Aug-31 19:31N 57°46' E 010°22'1212.6
2014-Aug-31 18:34N 57°50' E 010°44'1312.8
2014-Aug-31 17:34N 57°41' E 011°01'1413.8
2014-Aug-31 16:33N 57°32' E 011°21'1818.4
2014-Aug-31 15:34N 57°15' E 011°35'1414.1
2014-Aug-31 14:33N 57°02' E 011°45'1414.1
2014-Aug-31 13:33N 56°49' E 011°52'1312.9
2014-Aug-31 12:33N 56°37' E 011°45'12311.2
2014-Aug-31 01:34N 54°35' E 011°15'1414.1
2014-Aug-31 00:33N 54°29' E 011°37'1313.3
2014-Aug-30 23:33N 54°26' E 011°59'1411.0
2014-Aug-30 22:17N 54°36' E 012°17'1013.5
2014-Aug-30 21:33N 54°42' E 012°30'1313.2
2014-Aug-30 20:33N 54°49' E 012°50'1312.8
2014-Aug-30 19:33N 54°53' E 013°11'1312.8
2014-Aug-30 18:34N 54°58' E 013°31'1312.8
2014-Aug-30 17:33N 55°03' E 013°52'1212.4
2014-Aug-30 16:34N 55°09' E 014°10'1313.2
2014-Aug-30 15:33N 55°20' E 014°25'1212.4
2014-Aug-30 14:33N 55°28' E 014°40'1312.6
2014-Aug-30 13:33N 55°34' E 014°59'1313.0
2014-Aug-30 12:33N 55°40' E 015°21'13813.6
2014-Aug-30 02:22N 56°41' E 019°03'1114.0
2014-Aug-30 01:33N 56°50' E 019°14'19613.7
2014-Aug-29 11:14N 59°32' E 022°45'913.8
2014-Aug-29 10:33N 59°35' E 023°02'1414.0
2014-Aug-29 09:34N 59°39' E 023°29'1414.1
2014-Aug-29 08:33N 59°43' E 023°56'3614.5
2014-Aug-29 06:06N 59°52' E 025°04'1012.8
2014-Aug-29 05:22N 59°53' E 025°23'1414.4
2014-Aug-29 04:22N 59°55' E 025°52'1518.3
2014-Aug-29 03:34N 59°59' E 026°20'1413.7
2014-Aug-29 02:34N 60°01' E 026°47'1412.7
2014-Aug-29 01:29N 60°03' E 027°14'1413.7
2014-Aug-29 00:29N 60°10' E 027°38'7013.0
2014-Aug-28 19:04N 59°56' E 029°56'510.3
2014-Aug-28 18:33N 59°54' E 030°06'4 0.3
2014-Aug-28 06:08N 59°52' E 030°12'  

Dump ship's entire track history